Time;durP1;ratioP1;P1;durP2;ratioP2;P2;SDS_P1;SDS_P2;PMS_P1;PMS_P2;Temp;Humidity;BMP_temperature;BMP_pressure;BME280_temperature;BME280_humidity;BME280_pressure;Samples;Min_cycle;Max_cycle;Signal;HPM_P1;HPM_P2
2023/09/18 00:01:39;;;;;;;6.90;3.00;;;;;;;;;;5016405;28;101357;-78
2023/09/18 00:04:06;;;;;;;7.97;3.30;;;;;;;;;;5033600;28;97679;-77
2023/09/18 00:06:33;;;;;;;10.27;2.95;;;;;;;;;;5019704;28;99258;-78
2023/09/18 00:08:59;;;;;;;12.38;3.03;;;;;;;;;;5038080;28;98097;-77
2023/09/18 00:11:26;;;;;;;7.80;2.88;;;;;;;;;;5037386;28;98870;-78
2023/09/18 00:13:53;;;;;;;;;;;;;;;;;;5020134;28;98842;-77
2023/09/18 00:16:20;;;;;;;10.27;3.20;;;;;;;;;;5039169;28;99416;-77
2023/09/18 00:18:46;;;;;;;8.13;2.90;;;;;;;;;;5031246;28;98262;-77
2023/09/18 00:21:13;;;;;;;5.78;2.70;;;;;;;;;;5009127;28;101853;-76
2023/09/18 00:23:39;;;;;;;9.60;3.17;;;;;;;;;;5040728;28;98267;-79
2023/09/18 00:26:06;;;;;;;7.93;2.80;;;;;;;;;;5037335;28;98936;-78
2023/09/18 00:28:33;;;;;;;6.80;2.85;;;;;;;;;;5020287;28;97819;-77
2023/09/18 00:30:59;;;;;;;6.45;2.88;;;;;;;;;;5037794;28;98154;-77
2023/09/18 00:33:26;;;;;;;8.73;2.85;;;;;;;;;;5029869;28;98759;-78
2023/09/18 00:35:52;;;;;;;7.57;2.88;;;;;;;;;;5037156;28;99220;-78
2023/09/18 00:38:22;;;;;;;6.55;2.90;;;;;;;;;;5038135;28;99216;-78
2023/09/18 00:40:48;;;;;;;7.13;2.95;;;;;;;;;;5018849;28;101674;-79
2023/09/18 00:43:15;;;;;;;7.95;2.90;;;;;;;;;;5022175;28;98139;-78
2023/09/18 00:45:43;;;;;;;7.57;2.83;;;;;;;;;;5043561;28;98520;-78
2023/09/18 00:48:10;;;;;;;5.13;2.70;;;;;;;;;;5041122;28;99771;-78
2023/09/18 00:50:38;;;;;;;6.57;2.80;;;;;;;;;;5022384;28;99298;-77
2023/09/18 00:53:07;;;;;;;8.93;2.85;;;;;;;;;;5033612;28;98038;-78
2023/09/18 00:55:36;;;;;;;5.43;2.80;;;;;;;;;;5022213;28;98219;-77
2023/09/18 00:58:03;;;;;;;7.35;3.35;;;;;;;;;;5040880;28;98507;-78
2023/09/18 01:00:29;;;;;;;5.07;2.88;;;;;;;;;;5021680;28;99687;-76
2023/09/18 01:02:56;;;;;;;6.78;3.03;;;;;;;;;;4994190;28;98246;-78
2023/09/18 01:05:23;;;;;;;5.15;2.63;;;;;;;;;;5040626;28;98388;-78
2023/09/18 01:07:49;;;;;;;6.20;2.80;;;;;;;;;;5025481;28;101195;-78
2023/09/18 01:10:16;;;;;;;8.48;2.95;;;;;;;;;;5022297;28;99734;-79
2023/09/18 01:12:48;;;;;;;5.82;3.20;;;;;;;;;;5022176;28;100996;-79
2023/09/18 01:15:21;;;;;;;5.60;2.90;;;;;;;;;;5040253;28;98222;-77
2023/09/18 01:17:48;;;;;;;6.53;2.92;;;;;;;;;;5036477;28;98430;-79
2023/09/18 01:20:14;;;;;;;7.38;3.40;;;;;;;;;;4990294;28;99040;-79
2023/09/18 01:22:41;;;;;;;6.47;3.33;;;;;;;;;;5008412;28;98507;-79
2023/09/18 01:25:08;;;;;;;5.50;2.95;;;;;;;;;;5037021;28;100460;-79
2023/09/18 01:27:34;;;;;;;6.32;2.90;;;;;;;;;;5021923;28;100896;-78
2023/09/18 01:30:01;;;;;;;6.25;2.90;;;;;;;;;;5043634;28;98173;-79
2023/09/18 01:32:30;;;;;;;7.07;2.83;;;;;;;;;;5015869;28;101748;-79
2023/09/18 01:35:00;;;;;;;7.18;3.00;;;;;;;;;;5022064;28;98457;-79
2023/09/18 01:37:27;;;;;;;6.13;2.97;;;;;;;;;;5005673;28;101189;-78
2023/09/18 01:39:54;;;;;;;6.07;3.10;;;;;;;;;;4998291;28;101311;-77
2023/09/18 01:42:22;;;;;;;6.18;3.20;;;;;;;;;;5037465;28;97363;-78
2023/09/18 01:44:49;;;;;;;7.20;3.20;;;;;;;;;;5040329;28;98464;-79
2023/09/18 01:47:17;;;;;;;5.93;3.30;;;;;;;;;;5021586;28;101661;-78
2023/09/18 01:49:46;;;;;;;7.00;3.15;;;;;;;;;;5021395;28;98994;-79
2023/09/18 01:52:12;;;;;;;7.78;3.20;;;;;;;;;;5024977;28;99554;-78
2023/09/18 01:54:40;;;;;;;6.82;3.30;;;;;;;;;;5039729;27;98226;-76
2023/09/18 01:57:07;;;;;;;8.23;3.15;;;;;;;;;;5040119;28;98575;-79
2023/09/18 01:59:34;;;;;;;7.05;3.17;;;;;;;;;;5004772;28;101596;-78
2023/09/18 02:02:07;;;;;;;6.07;3.33;;;;;;;;;;5015728;28;98296;-79
2023/09/18 02:04:34;;;;;;;6.85;3.13;;;;;;;;;;5038115;28;99130;-78
2023/09/18 02:07:24;;;;;;;7.45;3.45;;;;;;;;;;5021926;28;100672;-78
2023/09/18 02:09:51;;;;;;;6.28;3.30;;;;;;;;;;5039853;28;98836;-78
2023/09/18 02:12:17;;;;;;;7.18;3.38;;;;;;;;;;5008108;28;100481;-78
2023/09/18 02:14:44;;;;;;;8.02;3.42;;;;;;;;;;5021150;28;99844;-78
2023/09/18 02:17:11;;;;;;;7.95;3.50;;;;;;;;;;5020828;28;101944;-78
2023/09/18 02:19:38;;;;;;;7.40;3.40;;;;;;;;;;5005838;28;99142;-78
2023/09/18 02:22:05;;;;;;;6.55;3.47;;;;;;;;;;5030475;28;98099;-78
2023/09/18 02:24:31;;;;;;;6.82;3.67;;;;;;;;;;5010165;28;100749;-79
2023/09/18 02:26:58;;;;;;;7.65;3.88;;;;;;;;;;5021117;28;98917;-79
2023/09/18 02:29:24;;;;;;;9.93;4.07;;;;;;;;;;5039375;28;98076;-77
2023/09/18 02:31:51;;;;;;;7.55;3.78;;;;;;;;;;5021343;28;98542;-77
2023/09/18 02:34:19;;;;;;;8.43;3.90;;;;;;;;;;5024462;28;99228;-77
2023/09/18 02:36:46;;;;;;;9.32;3.88;;;;;;;;;;5039340;28;98762;-78
2023/09/18 02:39:12;;;;;;;7.68;4.03;;;;;;;;;;5003433;28;102311;-77
2023/09/18 02:41:39;;;;;;;9.43;4.72;;;;;;;;;;5039007;28;98144;-77
2023/09/18 02:44:06;;;;;;;9.55;4.53;;;;;;;;;;5039377;28;98756;-77
2023/09/18 02:46:33;;;;;;;7.85;4.40;;;;;;;;;;5021158;28;98741;-78
2023/09/18 02:48:59;;;;;;;9.50;4.18;;;;;;;;;;5038983;28;98274;-77
2023/09/18 02:51:26;;;;;;;11.50;4.82;;;;;;;;;;5039085;28;98786;-77
2023/09/18 02:53:53;;;;;;;8.80;4.53;;;;;;;;;;5020514;28;99572;-77
2023/09/18 02:56:19;;;;;;;10.25;4.75;;;;;;;;;;5024401;28;97414;-78
2023/09/18 02:58:46;;;;;;;9.23;4.95;;;;;;;;;;5038312;28;98751;-78
2023/09/18 03:01:12;;;;;;;9.52;4.70;;;;;;;;;;5020670;28;98284;-78
2023/09/18 03:03:41;;;;;;;;;;;;;;;;;;4995831;28;100851;-77
2023/09/18 03:06:08;;;;;;;8.20;4.45;;;;;;;;;;5020806;28;101154;-77
2023/09/18 03:08:35;;;;;;;9.02;4.40;;;;;;;;;;5020769;28;98677;-78
2023/09/18 03:11:10;;;;;;;8.65;4.63;;;;;;;;;;5020380;28;100706;-78
2023/09/18 03:13:37;;;;;;;8.73;4.40;;;;;;;;;;5038679;28;99076;-77
2023/09/18 03:16:03;;;;;;;9.02;4.45;;;;;;;;;;5020419;28;98376;-78
2023/09/18 03:18:30;;;;;;;9.95;4.80;;;;;;;;;;4996977;28;100597;-78
2023/09/18 03:20:57;;;;;;;11.15;4.40;;;;;;;;;;5005902;28;98533;-78
2023/09/18 03:23:24;;;;;;;8.70;4.18;;;;;;;;;;5013888;28;100343;-78
2023/09/18 03:25:50;;;;;;;10.70;4.85;;;;;;;;;;5019755;28;100693;-77
2023/09/18 03:28:19;;;;;;;10.68;4.32;;;;;;;;;;5018677;28;98954;-78
2023/09/18 03:30:47;;;;;;;9.25;4.60;;;;;;;;;;5009980;28;102028;-78
2023/09/18 03:33:13;;;;;;;8.60;4.38;;;;;;;;;;5020217;28;100760;-78
2023/09/18 03:35:47;;;;;;;9.00;4.55;;;;;;;;;;5038538;28;98256;-80
2023/09/18 03:38:15;;;;;;;8.70;4.35;;;;;;;;;;5003826;28;98504;-77
2023/09/18 03:40:43;;;;;;;9.30;4.60;;;;;;;;;;5022891;28;101024;-79
2023/09/18 03:43:10;;;;;;;9.43;4.43;;;;;;;;;;5038729;28;98456;-78
2023/09/18 03:45:36;;;;;;;8.27;4.30;;;;;;;;;;5020029;28;101393;-78
2023/09/18 03:48:03;;;;;;;8.73;4.60;;;;;;;;;;5020306;28;98684;-77
2023/09/18 03:50:30;;;;;;;10.32;4.75;;;;;;;;;;5019824;28;100214;-77
2023/09/18 03:52:57;;;;;;;8.75;4.75;;;;;;;;;;5002545;28;102589;-78
2023/09/18 03:55:24;;;;;;;10.35;4.82;;;;;;;;;;5003090;28;98697;-78
2023/09/18 03:57:51;;;;;;;9.82;4.75;;;;;;;;;;5003590;28;98880;-78
2023/09/18 04:00:18;;;;;;;9.85;4.80;;;;;;;;;;5037691;28;98740;-79
2023/09/18 04:02:45;;;;;;;12.35;5.70;;;;;;;;;;5014803;28;98642;-78
2023/09/18 04:05:12;;;;;;;10.80;5.07;;;;;;;;;;5019080;28;101395;-77
2023/09/18 04:07:39;;;;;;;10.68;6.35;;;;;;;;;;5038053;28;98164;-77
2023/09/18 04:10:05;;;;;;;11.75;5.47;;;;;;;;;;5020116;28;98739;-78
2023/09/18 04:12:32;;;;;;;13.48;7.68;;;;;;;;;;5037817;28;98647;-79
2023/09/18 04:14:58;;;;;;;14.50;7.82;;;;;;;;;;5019623;28;98300;-76
2023/09/18 04:17:25;;;;;;;11.20;5.93;;;;;;;;;;5022165;28;98880;-79
2023/09/18 04:19:52;;;;;;;10.35;6.18;;;;;;;;;;5017050;28;101334;-79
2023/09/18 04:22:18;;;;;;;14.50;7.20;;;;;;;;;;5015180;28;98782;-79
2023/09/18 04:24:45;;;;;;;14.63;7.13;;;;;;;;;;5002395;28;99724;-79
2023/09/18 04:27:12;;;;;;;12.73;7.32;;;;;;;;;;5037197;28;98640;-79
2023/09/18 04:29:38;;;;;;;11.82;7.05;;;;;;;;;;5018104;28;98788;-80
2023/09/18 04:32:06;;;;;;;14.90;6.78;;;;;;;;;;5022538;28;101561;-79
2023/09/18 04:34:34;;;;;;;15.45;6.80;;;;;;;;;;5023430;28;97621;-78
2023/09/18 04:37:02;;;;;;;12.48;6.25;;;;;;;;;;5023366;28;98107;-78
2023/09/18 04:39:30;;;;;;;10.98;5.63;;;;;;;;;;5022589;28;101103;-79
2023/09/18 04:41:57;;;;;;;11.68;6.25;;;;;;;;;;5022403;28;99411;-79
2023/09/18 04:44:24;;;;;;;11.93;5.50;;;;;;;;;;5025663;28;101722;-79
2023/09/18 04:46:51;;;;;;;11.60;6.00;;;;;;;;;;5041273;28;98131;-79
2023/09/18 04:49:18;;;;;;;12.18;6.00;;;;;;;;;;5022803;28;100637;-79
2023/09/18 04:51:45;;;;;;;12.18;7.22;;;;;;;;;;5040590;28;99966;-79
2023/09/18 04:54:12;;;;;;;15.90;8.88;;;;;;;;;;5040811;28;98237;-80
2023/09/18 04:56:38;;;;;;;13.68;6.55;;;;;;;;;;5005898;28;100411;-80
2023/09/18 04:59:05;;;;;;;14.77;6.95;;;;;;;;;;5040802;28;98450;-80
2023/09/18 05:01:32;;;;;;;15.27;5.75;;;;;;;;;;5039058;28;98167;-80
2023/09/18 05:03:58;;;;;;;13.60;5.80;;;;;;;;;;5034269;28;98943;-81
2023/09/18 05:06:25;;;;;;;12.85;4.65;;;;;;;;;;5024878;28;101999;-80
2023/09/18 05:08:54;;;;;;;10.40;5.10;;;;;;;;;;5022800;28;99250;-80
2023/09/18 05:11:21;;;;;;;11.35;4.97;;;;;;;;;;5040375;28;98961;-80
2023/09/18 05:13:49;;;;;;;9.48;4.70;;;;;;;;;;5040967;28;98602;-80
2023/09/18 05:16:16;;;;;;;10.23;4.32;;;;;;;;;;5040577;28;98681;-80
2023/09/18 05:18:42;;;;;;;10.05;4.40;;;;;;;;;;5012087;28;100643;-79
2023/09/18 05:21:10;;;;;;;8.48;4.28;;;;;;;;;;5008834;28;98185;-81
2023/09/18 05:23:36;;;;;;;10.25;4.35;;;;;;;;;;5017605;28;98419;-80
2023/09/18 05:26:03;;;;;;;9.40;3.72;;;;;;;;;;5015428;28;99489;-79
2023/09/18 05:28:30;;;;;;;7.95;3.75;;;;;;;;;;5024249;28;98564;-80
2023/09/18 05:30:56;;;;;;;7.35;3.67;;;;;;;;;;4989640;28;101985;-80
2023/09/18 05:33:23;;;;;;;8.88;3.60;;;;;;;;;;5035072;28;98154;-80
2023/09/18 05:35:50;;;;;;;7.35;3.58;;;;;;;;;;5039921;28;99349;-80
2023/09/18 05:38:17;;;;;;;7.78;3.60;;;;;;;;;;5039725;28;99829;-80
2023/09/18 05:40:44;;;;;;;;;;;;;;;;;;5040289;28;98155;-80
2023/09/18 05:43:11;;;;;;;6.80;3.50;;;;;;;;;;5023277;28;119468;-79
2023/09/18 05:45:38;;;;;;;6.85;3.60;;;;;;;;;;5021376;28;98952;-79
2023/09/18 05:48:05;;;;;;;7.70;3.60;;;;;;;;;;5022423;28;97442;-79
2023/09/18 05:50:32;;;;;;;7.20;3.35;;;;;;;;;;5042110;28;98506;-79
2023/09/18 05:53:00;;;;;;;;;;;;;;;;;;5040165;28;98115;-80
2023/09/18 05:55:27;;;;;;;7.53;3.35;;;;;;;;;;5022222;28;98893;-80
2023/09/18 05:57:53;;;;;;;7.15;3.30;;;;;;;;;;5021250;28;98871;-81
2023/09/18 06:00:21;;;;;;;7.65;3.30;;;;;;;;;;5039092;28;98201;-80
2023/09/18 06:02:48;;;;;;;7.00;3.42;;;;;;;;;;5030657;28;98805;-80
2023/09/18 06:05:15;;;;;;;8.10;3.30;;;;;;;;;;5038727;28;98951;-80
2023/09/18 06:07:42;;;;;;;7.75;3.72;;;;;;;;;;5004747;28;98399;-80
2023/09/18 06:10:09;;;;;;;8.90;3.22;;;;;;;;;;5038919;28;99819;-80
2023/09/18 06:12:38;;;;;;;10.65;3.20;;;;;;;;;;5024712;28;98424;-80
2023/09/18 06:15:05;;;;;;;7.20;3.22;;;;;;;;;;5020644;28;98158;-80
2023/09/18 06:17:34;;;;;;;7.00;3.42;;;;;;;;;;5037909;28;99674;-80
2023/09/18 06:20:01;;;;;;;8.27;3.33;;;;;;;;;;5014273;28;99642;-82
2023/09/18 06:22:27;;;;;;;7.00;3.33;;;;;;;;;;5018999;28;99364;-80
2023/09/18 06:24:54;;;;;;;6.45;3.10;;;;;;;;;;5031192;28;98855;-80
2023/09/18 06:27:20;;;;;;;6.03;2.95;;;;;;;;;;5039269;28;98012;-80
2023/09/18 06:29:47;;;;;;;6.72;3.10;;;;;;;;;;5020575;28;100557;-78
2023/09/18 06:32:13;;;;;;;6.80;2.90;;;;;;;;;;5023788;28;101548;-80
2023/09/18 06:34:43;;;;;;;7.22;3.05;;;;;;;;;;5038733;28;99617;-78
2023/09/18 06:37:12;;;;;;;6.57;3.20;;;;;;;;;;5020740;28;100390;-81
2023/09/18 06:39:39;;;;;;;7.22;3.30;;;;;;;;;;5019851;28;98253;-79
2023/09/18 06:42:06;;;;;;;9.27;3.40;;;;;;;;;;5024427;28;98516;-79
2023/09/18 06:44:32;;;;;;;8.23;3.15;;;;;;;;;;5019252;28;102415;-77
2023/09/18 06:46:59;;;;;;;7.80;3.30;;;;;;;;;;5038810;28;98558;-78
2023/09/18 06:49:25;;;;;;;9.88;3.42;;;;;;;;;;5038772;28;98440;-77
2023/09/18 06:51:52;;;;;;;9.27;4.05;;;;;;;;;;5020388;28;98902;-77
2023/09/18 06:54:19;;;;;;;9.25;3.80;;;;;;;;;;5041315;28;98542;-77
2023/09/18 06:56:45;;;;;;;8.77;3.78;;;;;;;;;;5003674;28;101020;-77
2023/09/18 06:59:12;;;;;;;10.98;3.97;;;;;;;;;;5016324;28;98171;-78
2023/09/18 07:01:45;;;;;;;8.77;4.75;;;;;;;;;;5043588;28;87590;-77
2023/09/18 07:04:12;;;;;;;8.02;4.63;;;;;;;;;;5017729;28;86335;-77
2023/09/18 07:06:39;;;;;;;10.30;4.93;;;;;;;;;;4996870;28;88849;-79
2023/09/18 07:09:06;;;;;;;10.73;5.30;;;;;;;;;;5002828;28;87255;-78
2023/09/18 07:11:34;;;;;;;10.25;4.97;;;;;;;;;;5016726;28;88618;-78
2023/09/18 07:14:06;;;;;;;10.65;5.00;;;;;;;;;;5002529;28;86961;-79
2023/09/18 07:16:33;;;;;;;11.60;5.53;;;;;;;;;;5011199;28;87120;-78
2023/09/18 07:19:01;;;;;;;12.43;5.30;;;;;;;;;;5020927;28;87247;-79
2023/09/18 07:21:29;;;;;;;12.48;5.35;;;;;;;;;;5023080;28;86379;-79
2023/09/18 07:23:55;;;;;;;10.43;5.38;;;;;;;;;;5009933;28;87432;-79
2023/09/18 07:26:22;;;;;;;14.18;5.55;;;;;;;;;;5011159;28;86708;-79
2023/09/18 07:28:49;;;;;;;12.43;6.13;;;;;;;;;;5005973;28;89558;-79
2023/09/18 07:31:15;;;;;;;13.07;6.90;;;;;;;;;;5013781;28;86917;-80
2023/09/18 07:33:42;;;;;;;11.40;6.22;;;;;;;;;;5006382;28;89352;-78
2023/09/18 07:36:14;;;;;;;11.48;6.53;;;;;;;;;;5010387;28;86674;-78
2023/09/18 07:38:43;;;;;;;11.20;6.25;;;;;;;;;;5019508;28;86338;-79
2023/09/18 07:41:10;;;;;;;11.63;6.13;;;;;;;;;;5012875;28;87409;-79
2023/09/18 07:43:37;;;;;;;10.32;5.78;;;;;;;;;;5022543;28;86859;-78
2023/09/18 07:46:04;;;;;;;;;;;;;;;;;;5010157;28;86764;-79
2023/09/18 07:48:31;;;;;;;9.75;5.50;;;;;;;;;;5016384;28;116452;-79
2023/09/18 07:50:57;;;;;;;11.73;6.07;;;;;;;;;;5003453;28;86762;-79
2023/09/18 07:53:24;;;;;;;11.55;5.80;;;;;;;;;;5015424;28;89318;-78
2023/09/18 07:55:55;;;;;;;9.77;5.10;;;;;;;;;;5012724;28;88424;-79
2023/09/18 07:58:22;;;;;;;9.02;5.10;;;;;;;;;;5005434;28;87300;-79
2023/09/18 08:00:51;;;;;;;10.05;4.97;;;;;;;;;;5006987;28;88494;-79
2023/09/18 08:03:18;;;;;;;10.77;5.15;;;;;;;;;;5016544;28;89591;-80
2023/09/18 08:05:47;;;;;;;9.50;4.90;;;;;;;;;;5015992;28;88835;-81
2023/09/18 08:08:14;;;;;;;9.13;4.88;;;;;;;;;;5000579;28;89149;-81
2023/09/18 08:10:41;;;;;;;9.68;4.65;;;;;;;;;;5015815;28;89153;-82
2023/09/18 08:13:07;;;;;;;9.23;4.70;;;;;;;;;;4987039;28;86534;-82
2023/09/18 08:15:34;;;;;;;8.88;4.57;;;;;;;;;;4984581;28;89389;-82
2023/09/18 08:18:01;;;;;;;10.20;4.72;;;;;;;;;;4987110;28;89422;-82
2023/09/18 08:20:28;;;;;;;10.52;4.53;;;;;;;;;;5005233;28;88474;-82
2023/09/18 08:22:56;;;;;;;8.43;4.53;;;;;;;;;;4998564;28;86869;-82
2023/09/18 08:25:24;;;;;;;8.38;3.20;;;;;;;;;;4996445;28;87234;-83
2023/09/18 08:27:50;;;;;;;8.05;3.60;;;;;;;;;;4989343;28;86694;-83
2023/09/18 08:30:20;;;;;;;8.40;4.30;;;;;;;;;;4992595;28;89802;-83
2023/09/18 08:32:47;;;;;;;8.82;4.45;;;;;;;;;;5005377;28;88352;-82
2023/09/18 08:35:14;;;;;;;9.25;4.00;;;;;;;;;;4999531;28;89983;-83
2023/09/18 08:37:41;;;;;;;9.00;3.72;;;;;;;;;;5007018;28;87257;-84
2023/09/18 08:40:13;;;;;;;9.30;4.38;;;;;;;;;;4986320;28;88548;-82
2023/09/18 08:42:44;;;;;;;8.25;4.10;;;;;;;;;;4987679;28;87146;-83
2023/09/18 08:45:14;;;;;;;7.38;3.53;;;;;;;;;;4999266;28;87505;-83
2023/09/18 08:47:41;;;;;;;8.15;3.67;;;;;;;;;;5003392;28;86826;-83
2023/09/18 08:50:11;;;;;;;7.82;3.78;;;;;;;;;;5003913;28;86907;-82
2023/09/18 08:52:38;;;;;;;8.13;3.80;;;;;;;;;;5002885;28;89164;-82
2023/09/18 08:55:06;;;;;;;8.02;3.35;;;;;;;;;;5000541;28;89178;-82
2023/09/18 08:57:36;;;;;;;7.50;3.65;;;;;;;;;;5002261;28;86854;-83
2023/09/18 09:00:07;;;;;;;7.40;3.75;;;;;;;;;;4991098;28;88660;-82
2023/09/18 09:02:34;;;;;;;7.00;3.00;;;;;;;;;;5005517;28;86775;-82
2023/09/18 09:05:01;;;;;;;7.13;3.17;;;;;;;;;;4989348;28;86571;-82
2023/09/18 09:07:31;;;;;;;7.72;3.60;;;;;;;;;;4997775;28;86768;-82
2023/09/18 09:09:58;;;;;;;8.05;3.40;;;;;;;;;;5002921;28;87641;-85
2023/09/18 09:13:01;;;;;;;8.60;3.25;;;;;;;;;;4989605;28;86465;-83
2023/09/18 09:15:31;;;;;;;6.50;3.40;;;;;;;;;;4992807;28;86598;-85
2023/09/18 09:18:02;;;;;;;7.40;3.22;;;;;;;;;;5001008;28;87577;-85
2023/09/18 09:20:29;;;;;;;7.82;3.17;;;;;;;;;;5002041;28;86975;-87
2023/09/18 09:23:00;;;;;;;7.40;3.05;;;;;;;;;;5004647;28;89208;-87
2023/09/18 09:25:28;;;;;;;7.93;2.92;;;;;;;;;;4995682;28;89019;-87
2023/09/18 09:27:55;;;;;;;7.57;3.10;;;;;;;;;;5005727;28;89325;-86
2023/09/18 09:30:25;;;;;;;7.80;3.15;;;;;;;;;;4997181;28;88125;-87
2023/09/18 09:32:52;;;;;;;6.72;2.83;;;;;;;;;;5022137;28;89097;-88
2023/09/18 09:35:23;;;;;;;7.60;2.70;;;;;;;;;;4999970;28;87299;-88
2023/09/18 09:37:51;;;;;;;7.65;2.70;;;;;;;;;;5002565;28;87413;-89
2023/09/18 09:40:19;;;;;;;6.15;2.63;;;;;;;;;;4982580;28;89780;-89
2023/09/18 09:42:46;;;;;;;7.43;2.90;;;;;;;;;;5002204;28;86122;-88
2023/09/18 09:45:15;;;;;;;5.93;2.65;;;;;;;;;;5001840;28;87666;-89
2023/09/18 09:47:42;;;;;;;7.65;3.00;;;;;;;;;;5002811;28;86543;-89
2023/09/18 09:50:13;;;;;;;6.97;3.10;;;;;;;;;;5001983;28;89420;-89
2023/09/18 09:52:42;;;;;;;7.05;2.80;;;;;;;;;;5001874;28;87473;-87
2023/09/18 09:55:21;;;;;;;5.90;2.90;;;;;;;;;;5001368;28;87408;-88
2023/09/18 09:57:49;;;;;;;6.88;3.03;;;;;;;;;;5005271;28;88351;-87
2023/09/18 10:00:26;;;;;;;6.53;3.17;;;;;;;;;;4984726;28;88997;-88
2023/09/18 10:02:56;;;;;;;6.75;3.55;;;;;;;;;;4999765;28;86640;-88
2023/09/18 10:05:26;;;;;;;8.73;3.90;;;;;;;;;;5004678;28;87181;-86
2023/09/18 10:07:58;;;;;;;8.63;3.47;;;;;;;;;;5006824;28;86888;-84
2023/09/18 10:10:29;;;;;;;8.57;3.30;;;;;;;;;;5004768;28;89150;-84
2023/09/18 10:13:04;;;;;;;6.43;3.28;;;;;;;;;;5006845;28;86980;-84
2023/09/18 10:15:33;;;;;;;7.70;3.80;;;;;;;;;;5005152;28;86897;-85
2023/09/18 10:18:00;;;;;;;9.07;3.47;;;;;;;;;;5007920;28;89151;-85
2023/09/18 10:20:27;;;;;;;10.35;3.83;;;;;;;;;;5004606;28;86717;-86
2023/09/18 10:22:56;;;;;;;7.28;3.50;;;;;;;;;;5004923;28;86348;-84
2023/09/18 10:25:31;;;;;;;8.98;4.03;;;;;;;;;;5004487;28;89216;-84
2023/09/18 10:28:01;;;;;;;7.50;4.53;;;;;;;;;;4988124;28;89541;-84
2023/09/18 10:30:29;;;;;;;8.60;5.10;;;;;;;;;;4996911;28;87160;-85
2023/09/18 10:32:57;;;;;;;8.32;5.05;;;;;;;;;;5013528;28;89531;-85
2023/09/18 10:35:24;;;;;;;9.60;5.90;;;;;;;;;;5004034;28;86882;-85
2023/09/18 10:37:53;;;;;;;10.77;5.65;;;;;;;;;;5006146;28;86886;-85
2023/09/18 10:40:21;;;;;;;8.75;5.78;;;;;;;;;;5002241;28;89759;-84
2023/09/18 10:42:48;;;;;;;9.05;5.60;;;;;;;;;;5001317;28;89274;-84
2023/09/18 10:45:15;;;;;;;9.57;5.38;;;;;;;;;;4987116;28;91057;-85
2023/09/18 10:47:45;;;;;;;8.38;5.20;;;;;;;;;;5004807;28;86632;-84
2023/09/18 10:50:12;;;;;;;8.63;5.90;;;;;;;;;;5003507;28;86842;-84
2023/09/18 10:52:42;;;;;;;9.18;5.47;;;;;;;;;;4984373;28;89758;-85
2023/09/18 10:55:12;;;;;;;10.18;6.22;;;;;;;;;;4984903;28;89295;-85
2023/09/18 10:57:55;;;;;;;10.38;5.85;;;;;;;;;;4988216;28;90019;-84
2023/09/18 11:00:27;;;;;;;11.85;6.15;;;;;;;;;;5001306;28;90074;-85
2023/09/18 11:03:08;;;;;;;10.88;5.68;;;;;;;;;;5012679;28;87029;-84
2023/09/18 11:05:35;;;;;;;10.98;6.00;;;;;;;;;;4995801;28;86969;-84
2023/09/18 11:08:20;;;;;;;10.02;5.88;;;;;;;;;;5005820;28;86777;-85
2023/09/18 11:10:56;;;;;;;10.25;6.10;;;;;;;;;;4991449;28;90176;-85
2023/09/18 11:13:30;;;;;;;9.52;5.35;;;;;;;;;;4983968;28;89840;-84
2023/09/18 11:16:00;;;;;;;9.45;5.13;;;;;;;;;;4987296;28;89628;-85
2023/09/18 11:18:32;;;;;;;11.75;5.60;;;;;;;;;;4980024;28;89119;-84
2023/09/18 11:21:08;;;;;;;9.32;5.00;;;;;;;;;;4995977;28;88304;-84
2023/09/18 11:23:42;;;;;;;9.43;4.47;;;;;;;;;;4994071;28;91152;-85
2023/09/18 11:26:15;;;;;;;9.98;4.75;;;;;;;;;;4985563;28;87856;-85
2023/09/18 11:28:42;;;;;;;9.95;4.80;;;;;;;;;;4983990;28;91302;-84
2023/09/18 11:31:10;;;;;;;7.75;4.55;;;;;;;;;;4996094;28;88505;-83
2023/09/18 11:33:43;;;;;;;9.52;4.90;;;;;;;;;;4987101;28;87807;-84
2023/09/18 11:36:18;;;;;;;12.50;5.47;;;;;;;;;;4993556;28;87955;-85
2023/09/18 11:38:52;;;;;;;10.68;5.57;;;;;;;;;;4999373;28;87555;-84
2023/09/18 11:41:26;;;;;;;9.77;6.28;;;;;;;;;;4989674;28;87950;-85
2023/09/18 11:44:18;;;;;;;8.77;6.40;;;;;;;;;;4997419;28;88037;-85
2023/09/18 11:46:52;;;;;;;9.30;6.65;;;;;;;;;;4999009;28;91473;-82
2023/09/18 11:49:23;;;;;;;10.50;6.53;;;;;;;;;;5001175;28;91824;-83
2023/09/18 11:51:50;;;;;;;9.60;6.13;;;;;;;;;;5006286;28;88906;-82
2023/09/18 11:54:17;;;;;;;10.63;6.15;;;;;;;;;;5005489;28;89626;-82
2023/09/18 11:56:44;;;;;;;12.25;6.00;;;;;;;;;;4988173;28;90470;-83
2023/09/18 11:59:12;;;;;;;9.45;5.10;;;;;;;;;;4997564;28;88307;-83
2023/09/18 12:01:46;;;;;;;11.45;5.30;;;;;;;;;;5005111;28;90003;-84
2023/09/18 12:04:13;;;;;;;8.90;4.30;;;;;;;;;;4990713;28;87958;-83
2023/09/18 12:06:40;;;;;;;8.63;4.78;;;;;;;;;;5005495;28;87985;-83
2023/09/18 12:09:07;;;;;;;;;;;;;;;;;;4992996;28;89875;-83
2023/09/18 12:11:35;;;;;;;8.70;4.50;;;;;;;;;;5022852;28;105824;-84
2023/09/18 12:14:06;;;;;;;10.82;4.88;;;;;;;;;;5007675;28;87626;-82
2023/09/18 12:16:39;;;;;;;8.77;4.55;;;;;;;;;;4997901;28;88240;-82
2023/09/18 12:19:06;;;;;;;9.50;4.60;;;;;;;;;;5004561;28;88073;-80
2023/09/18 12:21:33;;;;;;;;;;;;;;;;;;5007012;28;87833;-80
2023/09/18 12:24:00;;;;;;;8.85;4.22;;;;;;;;;;5009049;28;87948;-81
2023/09/18 12:26:27;;;;;;;9.98;3.97;;;;;;;;;;5006647;28;88317;-79
2023/09/18 12:28:53;;;;;;;7.90;4.15;;;;;;;;;;5007335;28;87378;-80
2023/09/18 12:31:20;;;;;;;7.68;4.30;;;;;;;;;;5007648;28;87834;-80
2023/09/18 12:33:48;;;;;;;8.48;4.18;;;;;;;;;;4991017;28;87830;-80
2023/09/18 12:36:19;;;;;;;7.90;4.00;;;;;;;;;;4985051;28;88434;-81
2023/09/18 12:38:55;;;;;;;7.93;3.55;;;;;;;;;;4993132;28;88707;-80
2023/09/18 12:41:22;;;;;;;8.23;3.83;;;;;;;;;;5000437;28;87902;-80
2023/09/18 12:43:48;;;;;;;7.40;3.95;;;;;;;;;;5000583;28;89847;-80
2023/09/18 12:46:15;;;;;;;8.02;3.72;;;;;;;;;;5006056;28;89223;-80
2023/09/18 12:48:46;;;;;;;9.13;4.53;;;;;;;;;;5005759;28;87456;-80
2023/09/18 12:51:14;;;;;;;7.53;4.22;;;;;;;;;;5007345;28;88382;-80
2023/09/18 12:53:41;;;;;;;8.27;4.00;;;;;;;;;;5010449;28;87578;-80
2023/09/18 12:56:15;;;;;;;8.45;4.15;;;;;;;;;;5006813;28;87523;-80
2023/09/18 12:58:42;;;;;;;9.35;3.90;;;;;;;;;;5007002;28;88375;-80
2023/09/18 13:01:28;;;;;;;7.47;3.42;;;;;;;;;;5005850;28;88785;-81
2023/09/18 13:03:55;;;;;;;8.00;3.63;;;;;;;;;;5006853;28;88748;-81
2023/09/18 13:06:24;;;;;;;7.97;3.55;;;;;;;;;;5005220;28;88505;-81
2023/09/18 13:08:53;;;;;;;7.25;3.38;;;;;;;;;;5006819;28;87608;-81
2023/09/18 13:11:20;;;;;;;8.07;3.20;;;;;;;;;;5006534;28;88548;-80
2023/09/18 13:13:56;;;;;;;7.10;2.95;;;;;;;;;;5006865;28;88807;-81
2023/09/18 13:16:23;;;;;;;8.55;3.38;;;;;;;;;;4991285;28;89448;-81
2023/09/18 13:18:49;;;;;;;7.18;3.40;;;;;;;;;;5007363;28;87675;-81
2023/09/18 13:21:16;;;;;;;7.10;3.40;;;;;;;;;;5004889;28;90051;-81
2023/09/18 13:23:43;;;;;;;;;;;;;;;;;;5005502;28;89829;-80
2023/09/18 13:26:10;;;;;;;8.32;3.47;;;;;;;;;;5006932;28;100833;-81
2023/09/18 13:28:36;;;;;;;8.20;3.35;;;;;;;;;;5005362;28;87954;-80
2023/09/18 13:31:07;;;;;;;;;;;;;;;;;;5005613;28;90901;-82
2023/09/18 13:33:38;;;;;;;8.13;2.90;;;;;;;;;;5005872;28;90679;-83
2023/09/18 13:36:06;;;;;;;7.13;3.30;;;;;;;;;;5008493;28;87629;-82
2023/09/18 13:38:33;;;;;;;7.30;3.08;;;;;;;;;;5004703;28;88318;-81
2023/09/18 13:41:01;;;;;;;7.57;2.83;;;;;;;;;;5005048;28;88219;-81
2023/09/18 13:43:32;;;;;;;9.25;2.80;;;;;;;;;;5005035;28;88286;-82
2023/09/18 13:45:59;;;;;;;5.45;2.20;;;;;;;;;;4980197;28;90404;-81
2023/09/18 13:48:32;;;;;;;7.28;2.75;;;;;;;;;;4984647;28;90290;-82
2023/09/18 13:51:03;;;;;;;6.30;2.60;;;;;;;;;;5001305;28;88503;-82
2023/09/18 13:53:33;;;;;;;7.68;2.70;;;;;;;;;;4984577;28;88207;-81
2023/09/18 13:56:00;;;;;;;8.02;2.30;;;;;;;;;;5001388;28;88652;-82
2023/09/18 13:58:29;;;;;;;6.80;2.20;;;;;;;;;;4993467;28;91152;-81
2023/09/18 14:00:57;;;;;;;5.18;2.55;;;;;;;;;;5002311;28;88918;-81
2023/09/18 14:03:23;;;;;;;6.68;2.40;;;;;;;;;;4998209;28;88069;-81
2023/09/18 14:05:50;;;;;;;4.57;2.30;;;;;;;;;;4968253;28;89307;-81
2023/09/18 14:08:17;;;;;;;5.28;2.10;;;;;;;;;;4984885;28;88973;-81
2023/09/18 14:10:44;;;;;;;5.85;2.33;;;;;;;;;;4985242;28;87558;-82
2023/09/18 14:13:13;;;;;;;4.80;2.20;;;;;;;;;;5004686;28;88171;-82
2023/09/18 14:15:40;;;;;;;5.13;2.15;;;;;;;;;;5003916;28;88498;-84
2023/09/18 14:18:07;;;;;;;5.18;2.30;;;;;;;;;;5003762;28;89345;-82
2023/09/18 14:20:33;;;;;;;4.15;2.03;;;;;;;;;;4991420;28;89899;-81
2023/09/18 14:23:00;;;;;;;4.15;2.05;;;;;;;;;;4986361;28;88157;-81
2023/09/18 14:25:27;;;;;;;6.10;2.42;;;;;;;;;;5001050;28;88644;-85
2023/09/18 14:27:54;;;;;;;4.90;2.28;;;;;;;;;;4984189;28;89527;-82
2023/09/18 14:30:21;;;;;;;5.78;2.00;;;;;;;;;;5004178;28;88075;-82
2023/09/18 14:32:49;;;;;;;6.68;2.40;;;;;;;;;;5004221;28;90435;-81
2023/09/18 14:35:16;;;;;;;6.30;2.20;;;;;;;;;;5003905;28;87757;-82
2023/09/18 14:37:43;;;;;;;6.47;2.30;;;;;;;;;;5002460;28;90694;-81
2023/09/18 14:40:11;;;;;;;5.93;2.22;;;;;;;;;;5002994;28;88888;-81
2023/09/18 14:42:39;;;;;;;6.18;2.80;;;;;;;;;;5006316;28;87708;-85
2023/09/18 14:45:09;;;;;;;6.88;2.20;;;;;;;;;;4987748;28;91307;-82
2023/09/18 14:47:36;;;;;;;6.65;2.55;;;;;;;;;;5004076;28;89722;-80